KEYWKRSW

Guest
Details From KEYW - Key West Intl
To KRSW - Southwest Florida Intl
Flight Number -
Tags generated
Created
Modified
Stats Distance 119 nm / 220 km
Max Altitude 4,900 ft / 1,494 m
Waypoints 3
Social Downloads 0
Likes 0
Share VATSIM

Download

Looking for another format? Having issues loading an existing format? Contact us
Advertisement - Login to hide

Notes

Basic altitude profile: - Ascent Rate: 2500ft/min - Ascent Speed: 250kts - Cruise Altitude: 20000ft - Cruise Speed: 420kts - Descent Rate: 1500ft/min - Descent Speed: 250kts Options: - Use NATs: yes - Use PACOTS: yes - Use low airways: yes - Use high airways: yes

Route

KEYW CYY KRSW

ID Type Via Altitude Latitude Longitude Leg Dist Tot Dist Heading (true) Name
O KEYW APT - 0 ft / 0 m 24.55612˚ -81.75955˚ - 0 nm - Key West Intl
CYY VOR - 4,900 ft / 1,494 m 26.15342˚ -81.77811˚ 95 nm 95 nm 359° / 359° CYPRESS VOR-DME
O KRSW APT - 0 ft / 0 m 26.53616˚ -81.75515˚ 23 nm 118 nm 3° / 3° Southwest Florida Intl

Altitude Profile

Advertisement - Login to hide

KEYW

Details ICAO KEYW (EYW)
Name Key West Intl
Region United States
Timezone America/New_York (UTC-5.0)
Stats Elevation 2 ft / 1 m (AMSL)
Location 24.556124° -81.759546°
Runways 1
Magnetic Variation 5.545° W

METAR

KEYW 160253Z AUTO 06004KT 10SM CLR 19/17 A3017 RMK AO2 SLP215 T01940167 51017

Decode

TAF

KEYW 152334Z 1600/1624 03007KT P6SM SCT060 TEMPO 1600/1603 BKN060 FM161200 07011KT P6SM SCT050

Decode

Departure Runways

ID Width Length Bearing (true) Bearing (mag) Surface Threshold Offset Overrun Length
09 100 ft / 30 m 4,794 ft / 1,461 m 89.38° 94.93° Asphalt 151 ft / 46 m 0 ft / 0 m
27 100 ft / 30 m 4,794 ft / 1,461 m 269.39° 274.94° Asphalt 151 ft / 46 m 0 ft / 0 m

KRSW

Details ICAO KRSW (RSW)
Name Southwest Florida Intl
Region United States
Timezone America/New_York (UTC-5.0)
Stats Elevation 30 ft / 9 m (AMSL)
Location 26.536162° -81.755152°
Runways 1
Magnetic Variation 5.840° W

METAR

KRSW 160253Z 00000KT 10SM CLR 17/15 A3017 RMK AO2 SLP214 T01670150 51017

Decode

TAF

KRSW 152327Z 1600/1624 VRB04KT P6SM BKN050 FM160300 VRB03KT P6SM FEW040 SCT250 FM160900 VRB03KT 4SM BR FEW020 SCT250 FM161300 06005KT P6SM SCT015 SCT250 FM161500 06007KT P6SM SCT040 SCT250

Decode

Destination Runways

ID Width Length Bearing (true) Bearing (mag) Surface Threshold Offset Overrun Length
06 150 ft / 46 m 12,004 ft / 3,659 m 53.96° 59.80° Asphalt 0 ft / 0 m 0 ft / 0 m
24 150 ft / 46 m 12,004 ft / 3,659 m 233.97° 239.81° Asphalt 0 ft / 0 m 0 ft / 0 m

Approach Navaids

Runway Type Ident Frequency Range Bearing (true) Bearing (mag) Slope Elevation
06 Localiser IRSW 111.50 MHz 18 nm / 33 km 53.97° 59.81° - 28 ft / 9 m (AMSL)
06 Glidescope IRSW 111.50 MHz 10 nm / 19 km 53.96° 59.80° 3.00° 27 ft / 8 m (AMSL)

Popular Alternatives